createdAt,value
2017-01-25T00:01:00.345Z,-1.75
2017-01-25T00:02:05.544Z,-1.74
2017-01-25T00:03:10.727Z,-1.78
2017-01-25T00:04:14.972Z,-1.75
2017-01-25T00:05:20.144Z,-1.72
2017-01-25T00:06:26.316Z,-1.8
2017-01-25T00:07:30.603Z,-1.77
2017-01-25T00:08:35.827Z,-1.81
2017-01-25T00:09:41.001Z,-1.75
2017-01-25T00:10:47.168Z,-1.78
2017-01-25T00:11:53.327Z,-1.93
2017-01-25T00:12:59.501Z,-1.78
2017-01-25T00:14:04.705Z,-1.77
2017-01-25T00:15:09.929Z,-1.85
2017-01-25T00:16:16.077Z,-1.9
2017-01-25T00:17:21.269Z,-1.88
2017-01-25T00:18:25.464Z,-2.03
2017-01-25T00:19:30.664Z,-2.03
2017-01-25T00:20:35.949Z,-2.06
2017-01-25T00:21:42.107Z,-2.06
2017-01-25T00:22:48.270Z,-2.11
2017-01-25T00:23:54.426Z,-2.17
2017-01-25T00:24:58.628Z,-2.05
2017-01-25T00:26:04.825Z,-2.06
2017-01-25T00:27:09.993Z,-2.06
2017-01-25T00:28:16.150Z,-2.05
2017-01-25T00:29:20.410Z,-2.11
2017-01-25T00:30:26.541Z,-2.16
2017-01-25T00:31:32.704Z,-2.24
2017-01-25T00:32:37.912Z,-2.21
2017-01-25T00:33:43.084Z,-2.21
2017-01-25T00:34:48.280Z,-2.33
2017-01-25T00:35:53.476Z,-2.33
2017-01-25T00:36:59.694Z,-2.35
2017-01-25T00:38:04.890Z,-2.32
2017-01-25T00:39:11.157Z,-2.38
2017-01-25T00:40:16.316Z,-2.35
2017-01-25T00:41:22.472Z,-2.29
2017-01-25T00:42:27.672Z,-2.42
2017-01-25T00:43:32.872Z,-2.38
2017-01-25T00:44:39.041Z,-2.45
2017-01-25T00:45:42.332Z,-2.47
2017-01-25T00:46:47.559Z,-2.53
2017-01-25T00:47:52.725Z,-2.56
2017-01-25T00:48:57.915Z,-2.54
2017-01-25T00:50:03.144Z,-2.61
2017-01-25T00:51:08.312Z,-2.61
2017-01-25T00:52:14.529Z,-2.68
2017-01-25T00:53:20.682Z,-2.66
2017-01-25T00:54:25.848Z,-2.6
2017-01-25T00:55:32.011Z,-2.68
2017-01-25T00:56:38.251Z,-2.75
2017-01-25T00:57:44.413Z,-2.74
2017-01-25T00:58:49.611Z,-2.85
2017-01-25T00:59:55.779Z,-2.86
2017-01-25T01:01:01.950Z,-2.85
2017-01-25T01:02:08.115Z,-2.87
2017-01-25T01:03:14.295Z,-2.86
2017-01-25T01:04:20.457Z,-2.96
2017-01-25T01:05:26.618Z,-3
2017-01-25T01:06:31.805Z,-2.97
2017-01-25T01:07:36.999Z,-2.94
2017-01-25T01:08:43.172Z,-3.02
2017-01-25T01:09:48.334Z,-3.02
2017-01-25T01:10:53.527Z,-3.14
2017-01-25T01:11:59.851Z,-3.02
2017-01-25T01:13:06.067Z,-3.1
2017-01-25T01:14:11.249Z,-3.04
2017-01-25T01:15:17.406Z,-3.02
2017-01-25T01:16:21.617Z,-3.02
2017-01-25T01:17:26.846Z,-3.02
2017-01-25T01:18:31.985Z,-2.96
2017-01-25T01:19:37.226Z,-3.05
2017-01-25T01:20:43.441Z,-3.1
2017-01-25T01:21:48.593Z,-3.05
2017-01-25T01:22:54.750Z,-3.14
2017-01-25T01:24:00.943Z,-3.1
2017-01-25T01:25:07.096Z,-3.13
2017-01-25T01:26:12.287Z,-3.11
2017-01-25T01:27:16.490Z,-3.18
2017-01-25T01:28:20.686Z,-3.17
2017-01-25T01:29:26.909Z,-3.11
2017-01-25T01:30:33.072Z,-3.18
2017-01-25T01:31:39.235Z,-3.14
2017-01-25T01:32:45.463Z,-3.28
2017-01-25T01:33:50.663Z,-3.13
2017-01-25T01:34:56.828Z,-3.22
2017-01-25T01:36:03.010Z,-3.22
2017-01-25T01:37:09.177Z,-3.15
2017-01-25T01:38:15.341Z,-3.26
2017-01-25T01:39:20.585Z,-3.26
2017-01-25T01:40:25.765Z,-3.2
2017-01-25T01:41:30.965Z,-3.31
2017-01-25T01:42:37.131Z,-3.2
2017-01-25T01:43:43.293Z,-3.17
2017-01-25T01:44:48.492Z,-3.08
2017-01-25T01:45:53.691Z,-3.11
2017-01-25T01:46:58.882Z,-3.1
2017-01-25T01:48:05.047Z,-3.07
2017-01-25T01:49:10.297Z,-3.1
2017-01-25T01:50:16.396Z,-3.14
2017-01-25T01:51:21.581Z,-3.2
2017-01-25T01:52:27.740Z,-3.26
2017-01-25T01:53:33.954Z,-3.31
2017-01-25T01:54:37.175Z,-3.26
2017-01-25T01:55:43.335Z,-3.2
2017-01-25T01:56:49.501Z,-3.25
2017-01-25T01:57:53.697Z,-3.33
2017-01-25T01:58:59.918Z,-3.32
2017-01-25T02:00:05.130Z,-3.36
2017-01-25T02:01:11.291Z,-3.38
2017-01-25T02:02:16.477Z,-3.29
2017-01-25T02:03:21.656Z,-3.36
2017-01-25T02:04:24.880Z,-3.38
2017-01-25T02:05:30.076Z,-3.28
2017-01-25T02:06:34.266Z,-3.28
2017-01-25T02:07:39.464Z,-3.32
2017-01-25T02:08:45.705Z,-3.35
2017-01-25T02:09:50.941Z,-3.28
2017-01-25T02:10:56.193Z,-3.32
2017-01-25T02:12:01.392Z,-3.35
2017-01-25T02:13:06.552Z,-3.29
2017-01-25T02:14:09.788Z,-3.35
2017-01-25T02:15:14.972Z,-3.32
2017-01-25T02:16:21.128Z,-3.38
2017-01-25T02:17:25.362Z,-3.35
2017-01-25T02:18:30.529Z,-3.31
2017-01-25T02:19:35.696Z,-3.33
2017-01-25T02:20:41.853Z,-3.36
2017-01-25T02:21:45.112Z,-3.38
2017-01-25T02:22:51.286Z,-3.33
2017-01-25T02:23:55.485Z,-3.35
2017-01-25T02:25:01.634Z,-3.26
2017-01-25T02:26:07.798Z,-3.28
2017-01-25T02:27:13.978Z,-3.36
2017-01-25T02:28:19.160Z,-3.36
2017-01-25T02:29:25.312Z,-3.32
2017-01-25T02:30:29.510Z,-3.33
2017-01-25T02:31:34.725Z,-3.41
2017-01-25T02:32:40.877Z,-3.46
2017-01-25T02:33:47.035Z,-3.41
2017-01-25T02:34:53.235Z,-3.5
2017-01-25T02:35:58.395Z,-3.47
2017-01-25T02:37:02.592Z,-3.56
2017-01-25T02:38:08.876Z,-3.53
2017-01-25T02:39:14.089Z,-3.51
2017-01-25T02:40:20.243Z,-3.54
2017-01-25T02:41:25.436Z,-3.44
2017-01-25T02:42:29.633Z,-3.53
2017-01-25T02:43:34.826Z,-3.53
2017-01-25T02:44:40.019Z,-3.61
2017-01-25T02:45:45.182Z,-3.54
2017-01-25T02:46:51.352Z,-3.6
2017-01-25T02:47:54.575Z,-3.57
2017-01-25T02:48:59.847Z,-3.56
2017-01-25T02:50:05.009Z,-3.56
2017-01-25T02:51:11.170Z,-3.57
2017-01-25T02:52:17.329Z,-3.54
2017-01-25T02:53:22.539Z,-3.57
2017-01-25T02:54:28.701Z,-3.62
2017-01-25T02:55:32.929Z,-3.6
2017-01-25T02:56:39.197Z,-3.61
2017-01-25T02:57:45.358Z,-3.56
2017-01-25T02:58:50.548Z,-3.44
2017-01-25T02:59:55.737Z,-3.47
2017-01-25T03:01:00.923Z,-3.38
2017-01-25T03:02:06.200Z,-3.43
2017-01-25T03:03:10.396Z,-3.36
2017-01-25T03:04:15.604Z,-3.33
2017-01-25T03:05:21.854Z,-3.33
2017-01-25T03:06:26.986Z,-3.36
2017-01-25T03:07:30.246Z,-3.39
2017-01-25T03:08:36.409Z,-3.38
2017-01-25T03:09:41.598Z,-3.41
2017-01-25T03:10:47.755Z,-3.35
2017-01-25T03:11:53.992Z,-3.32
2017-01-25T03:12:58.248Z,-3.28
2017-01-25T03:14:04.424Z,-3.26
2017-01-25T03:15:10.625Z,-3.35
2017-01-25T03:16:16.786Z,-3.38
2017-01-25T03:17:22.961Z,-3.41
2017-01-25T03:18:27.179Z,-3.46
2017-01-25T03:19:33.362Z,-3.47
2017-01-25T03:20:38.555Z,-3.51
2017-01-25T03:21:44.719Z,-3.62
2017-01-25T03:22:50.894Z,-3.51
2017-01-25T03:23:57.062Z,-3.46
2017-01-25T03:24:59.327Z,-3.44
2017-01-25T03:26:05.510Z,-3.47
2017-01-25T03:27:10.668Z,-3.44
2017-01-25T03:28:16.867Z,-3.51
2017-01-25T03:29:23.036Z,-3.51
2017-01-25T03:30:28.203Z,-3.61
2017-01-25T03:31:34.361Z,-3.54
2017-01-25T03:32:40.517Z,-3.57
2017-01-25T03:33:45.797Z,-3.61
2017-01-25T03:34:50.993Z,-3.49
2017-01-25T03:35:57.275Z,-3.49
2017-01-25T03:37:01.508Z,-3.41
2017-01-25T03:38:06.695Z,-3.46
2017-01-25T03:39:11.890Z,-3.38
2017-01-25T03:40:18.060Z,-3.38
2017-01-25T03:41:23.251Z,-3.47
2017-01-25T03:42:29.503Z,-3.44
2017-01-25T03:43:34.771Z,-3.46
2017-01-25T03:44:39.962Z,-3.49
2017-01-25T03:45:46.206Z,-3.47
2017-01-25T03:46:50.447Z,-3.53
2017-01-25T03:47:55.645Z,-3.51
2017-01-25T03:49:00.833Z,-3.54
2017-01-25T03:50:06.024Z,-3.56
2017-01-25T03:51:12.285Z,-3.47
2017-01-25T03:52:16.514Z,-3.43
2017-01-25T03:53:21.713Z,-3.56
2017-01-25T03:54:27.050Z,-3.6
2017-01-25T03:55:32.214Z,-3.62
2017-01-25T03:56:37.388Z,-3.68
2017-01-25T03:57:43.547Z,-3.68
2017-01-25T03:58:49.709Z,-3.62
2017-01-25T03:59:54.894Z,-3.67
2017-01-25T04:01:00.140Z,-3.64
2017-01-25T04:02:05.305Z,-3.64
2017-01-25T04:03:10.507Z,-3.49
2017-01-25T04:04:16.778Z,-3.49
2017-01-25T04:05:21.968Z,-3.54
2017-01-25T04:06:26.195Z,-3.41
2017-01-25T04:07:32.349Z,-3.44
2017-01-25T04:08:37.543Z,-3.41
2017-01-25T04:09:41.761Z,-3.43
2017-01-25T04:10:46.041Z,-3.43
2017-01-25T04:11:52.303Z,-3.41
2017-01-25T04:12:56.499Z,-3.49
2017-01-25T04:14:02.654Z,-3.53
2017-01-25T04:15:08.825Z,-3.54
2017-01-25T04:16:14.025Z,-3.54
2017-01-25T04:17:18.255Z,-3.51
2017-01-25T04:18:24.384Z,-3.5
2017-01-25T04:19:30.535Z,-3.54
2017-01-25T04:20:35.701Z,-3.54
2017-01-25T04:21:41.859Z,-3.51
2017-01-25T04:22:47.072Z,-3.64
2017-01-25T04:23:51.297Z,-3.64
2017-01-25T04:24:56.487Z,-3.62
2017-01-25T04:26:02.657Z,-3.75
2017-01-25T04:27:07.861Z,-3.75
2017-01-25T04:28:13.059Z,-3.65
2017-01-25T04:29:19.232Z,-3.65
2017-01-25T04:30:24.400Z,-3.64
2017-01-25T04:31:29.560Z,-3.75
2017-01-25T04:32:35.720Z,-3.67
2017-01-25T04:33:41.902Z,-3.8
2017-01-25T04:34:47.103Z,-3.86
2017-01-25T04:35:52.311Z,-3.93
2017-01-25T04:36:58.465Z,-3.9
2017-01-25T04:38:04.630Z,-3.89
2017-01-25T04:39:09.825Z,-3.94
2017-01-25T04:40:15.998Z,-3.93
2017-01-25T04:41:22.166Z,-4.05
2017-01-25T04:42:27.389Z,-4.11
2017-01-25T04:43:31.589Z,-4.08
2017-01-25T04:44:37.754Z,-4.09
2017-01-25T04:45:43.918Z,-4.05
2017-01-25T04:46:50.108Z,-4.08
2017-01-25T04:47:55.247Z,-4.11
2017-01-25T04:49:01.557Z,-4.14
2017-01-25T04:50:07.741Z,-4.14
2017-01-25T04:51:11.974Z,-4.15
2017-01-25T04:52:18.125Z,-4.18
2017-01-25T04:53:24.324Z,-4.14
2017-01-25T04:54:30.540Z,-4.19
2017-01-25T04:55:36.770Z,-4.23
2017-01-25T04:56:42.872Z,-4.29
2017-01-25T04:57:48.046Z,-4.28
2017-01-25T04:58:53.213Z,-4.28
2017-01-25T04:59:58.403Z,-4.25
2017-01-25T05:01:03.597Z,-4.32
2017-01-25T05:02:09.757Z,-4.32
2017-01-25T05:03:14.959Z,-4.23
2017-01-25T05:04:20.150Z,-4.33
2017-01-25T05:05:26.413Z,-4.29
2017-01-25T05:06:32.584Z,-4.29
2017-01-25T05:07:38.782Z,-4.3
2017-01-25T05:08:44.916Z,-4.29
2017-01-25T05:09:50.139Z,-4.26
2017-01-25T05:10:56.270Z,-4.23
2017-01-25T05:12:00.503Z,-4.22
2017-01-25T05:13:05.702Z,-4.19
2017-01-25T05:14:10.935Z,-4.11
2017-01-25T05:15:17.045Z,-4.14
2017-01-25T05:16:23.249Z,-4.2
2017-01-25T05:17:28.378Z,-4.07
2017-01-25T05:18:33.660Z,-4.14
2017-01-25T05:19:39.813Z,-4.05
2017-01-25T05:20:45.976Z,-4.08
2017-01-25T05:21:51.174Z,-4.08
2017-01-25T05:22:56.366Z,-4.08
2017-01-25T05:24:02.529Z,-4.09
2017-01-25T05:25:06.717Z,-4.22
2017-01-25T05:26:12.980Z,-4.14
2017-01-25T05:27:17.220Z,-4.08
2017-01-25T05:28:22.371Z,-4.08
2017-01-25T05:29:28.528Z,-4.09
2017-01-25T05:30:33.744Z,-4.15
2017-01-25T05:31:39.002Z,-4.08
2017-01-25T05:32:44.147Z,-4.12
2017-01-25T05:33:50.305Z,-4.22
2017-01-25T05:34:56.473Z,-4.14
2017-01-25T05:36:00.781Z,-4.19
2017-01-25T05:37:05.982Z,-4.14
2017-01-25T05:38:10.232Z,-4.22
2017-01-25T05:39:16.490Z,-4.18
2017-01-25T05:40:20.736Z,-4.19
2017-01-25T05:41:26.862Z,-4.14
2017-01-25T05:42:32.046Z,-4.11
2017-01-25T05:43:37.238Z,-4.11
2017-01-25T05:44:43.401Z,-4.08
2017-01-25T05:45:49.572Z,-4.11
2017-01-25T05:46:54.762Z,-4.12
2017-01-25T05:47:59.965Z,-4.11
2017-01-25T05:49:05.154Z,-4.14
2017-01-25T05:50:11.317Z,-4.18
2017-01-25T05:51:15.537Z,-4.18
2017-01-25T05:52:21.697Z,-4.14
2017-01-25T05:53:26.892Z,-4.19
2017-01-25T05:54:32.090Z,-4.14
2017-01-25T05:55:37.274Z,-4.09
2017-01-25T05:56:42.475Z,-4.05
2017-01-25T05:57:47.678Z,-4.01
2017-01-25T05:58:52.925Z,-4.09
2017-01-25T05:59:59.060Z,-4.11
2017-01-25T06:01:04.349Z,-4.12
2017-01-25T06:02:09.511Z,-4.07
2017-01-25T06:03:14.709Z,-4.14
2017-01-25T06:04:20.871Z,-4.12
2017-01-25T06:05:26.039Z,-4.19
2017-01-25T06:06:31.255Z,-4.12
2017-01-25T06:07:37.416Z,-4.12
2017-01-25T06:08:43.607Z,-4.14
2017-01-25T06:09:49.742Z,-4.18
2017-01-25T06:10:53.941Z,-4.08
2017-01-25T06:12:00.103Z,-4.18
2017-01-25T06:13:05.291Z,-4.19
2017-01-25T06:14:09.512Z,-4.15
2017-01-25T06:15:11.781Z,-4.18
2017-01-25T06:16:15.040Z,-4.18
2017-01-25T06:17:21.191Z,-4.12
2017-01-25T06:18:27.347Z,-4.11
2017-01-25T06:19:31.579Z,-4.15
2017-01-25T06:20:36.777Z,-4.26
2017-01-25T06:21:41.014Z,-4.23
2017-01-25T06:22:45.236Z,-4.29
2017-01-25T06:23:51.414Z,-4.25
2017-01-25T06:24:57.631Z,-4.28
2017-01-25T06:26:03.731Z,-4.25
2017-01-25T06:27:08.891Z,-4.28
2017-01-25T06:28:15.111Z,-4.26
2017-01-25T06:29:20.320Z,-4.23
2017-01-25T06:30:25.506Z,-4.14
2017-01-25T06:31:29.729Z,-4.05
2017-01-25T06:32:33.936Z,-4.07
2017-01-25T06:33:40.105Z,-4.14
2017-01-25T06:34:46.264Z,-4.02
2017-01-25T06:35:51.453Z,-3.98
2017-01-25T06:36:57.613Z,-3.99
2017-01-25T06:38:01.829Z,-4.14
2017-01-25T06:39:07.984Z,-4.04
2017-01-25T06:40:12.204Z,-4.09
2017-01-25T06:41:17.433Z,-4.08
2017-01-25T06:42:22.596Z,-4.11
2017-01-25T06:43:26.820Z,-4.08
2017-01-25T06:44:32.998Z,-4.09
2017-01-25T06:45:39.166Z,-4.01
2017-01-25T06:46:43.427Z,-4.07
2017-01-25T06:47:48.667Z,-3.99
2017-01-25T06:48:54.785Z,-3.96
2017-01-25T06:50:00.952Z,-3.98
2017-01-25T06:51:06.135Z,-3.93
2017-01-25T06:52:11.330Z,-3.99
2017-01-25T06:53:17.522Z,-3.9
2017-01-25T06:54:22.767Z,-3.94
2017-01-25T06:55:28.920Z,-3.89
2017-01-25T06:56:35.036Z,-3.9
2017-01-25T06:57:39.230Z,-3.93
2017-01-25T06:58:44.433Z,-3.93
2017-01-25T06:59:50.595Z,-4.01
2017-01-25T07:00:56.758Z,-3.98
2017-01-25T07:02:02.913Z,-3.99
2017-01-25T07:03:08.114Z,-4.11
2017-01-25T07:04:13.325Z,-4.09
2017-01-25T07:05:18.553Z,-4.05
2017-01-25T07:06:24.730Z,-4.07
2017-01-25T07:07:30.851Z,-4.07
2017-01-25T07:08:37.012Z,-4.05
2017-01-25T07:09:43.170Z,-4.02
2017-01-25T07:10:47.403Z,-3.98
2017-01-25T07:11:51.630Z,-3.96
2017-01-25T07:12:57.787Z,-4.08
2017-01-25T07:14:01.050Z,-4.08
2017-01-25T07:15:04.299Z,-4.08
2017-01-25T07:16:10.469Z,-4.11
2017-01-25T07:17:13.718Z,-4.12
2017-01-25T07:18:18.993Z,-4.2
2017-01-25T07:19:24.281Z,-4.12
2017-01-25T07:20:27.435Z,-4.22
2017-01-25T07:21:30.660Z,-4.11
2017-01-25T07:22:34.889Z,-4.08
2017-01-25T07:23:39.090Z,-4.07
2017-01-25T07:24:44.352Z,-4.15
2017-01-25T07:25:48.727Z,-4.15
2017-01-25T07:26:54.856Z,-4.11
2017-01-25T07:27:59.105Z,-4.09
2017-01-25T07:29:04.296Z,-4.05
2017-01-25T07:30:10.546Z,-4.09
2017-01-25T07:31:16.674Z,-4.12
2017-01-25T07:32:22.952Z,-4.09
2017-01-25T07:33:29.231Z,-4.07
2017-01-25T07:34:33.389Z,-4.05
2017-01-25T07:35:38.581Z,-4.08
2017-01-25T07:36:44.755Z,-4.05
2017-01-25T07:37:50.942Z,-4.09
2017-01-25T07:38:56.089Z,-4.01
2017-01-25T07:40:02.291Z,-4.08
2017-01-25T07:41:07.477Z,-4.08
2017-01-25T07:42:13.644Z,-3.98
2017-01-25T07:43:18.833Z,-4.01
2017-01-25T07:44:24.122Z,-3.99
2017-01-25T07:45:30.315Z,-3.99
2017-01-25T07:46:35.442Z,-3.98
2017-01-25T07:47:38.701Z,-3.98
2017-01-25T07:48:42.956Z,-4.04
2017-01-25T07:49:48.091Z,-3.98
2017-01-25T07:50:54.250Z,-3.93
2017-01-25T07:51:58.611Z,-3.91
2017-01-25T07:53:03.870Z,-3.9
2017-01-25T07:54:10.036Z,-3.89
2017-01-25T07:55:15.311Z,-3.81
2017-01-25T07:56:20.510Z,-3.7
2017-01-25T07:57:25.707Z,-3.65
2017-01-25T07:58:31.870Z,-3.47
2017-01-25T07:59:36.141Z,-3.46
2017-01-25T08:00:42.339Z,-3.13
2017-01-25T08:01:48.496Z,-2.93
2017-01-25T08:02:52.745Z,-2.61
2017-01-25T08:03:57.963Z,-2.4
2017-01-25T08:05:03.216Z,-2.24
2017-01-25T08:06:08.452Z,-2.1
2017-01-25T08:07:12.686Z,-1.82
2017-01-25T08:08:18.868Z,-1.69
2017-01-25T08:09:24.038Z,-1.57
2017-01-25T08:10:29.280Z,-1.45
2017-01-25T08:11:34.410Z,-1.39
2017-01-25T08:12:40.681Z,-1.21
2017-01-25T08:13:45.875Z,-1.12
2017-01-25T08:14:51.069Z,-0.94
2017-01-25T08:15:57.232Z,-0.97
2017-01-25T08:17:03.396Z,-0.87
2017-01-25T08:18:08.614Z,-0.89
2017-01-25T08:19:11.854Z,-0.84
2017-01-25T08:20:17.047Z,-0.8
2017-01-25T08:21:23.257Z,-0.54
2017-01-25T08:22:29.435Z,-0.55
2017-01-25T08:23:34.621Z,-0.65
2017-01-25T08:24:40.778Z,-0.55
2017-01-25T08:25:45.010Z,-0.54
2017-01-25T08:26:49.270Z,-0.42
2017-01-25T08:27:55.429Z,-0.41
2017-01-25T08:29:01.602Z,-0.37
2017-01-25T08:30:04.838Z,-0.12
2017-01-25T08:31:10.031Z,0.1
2017-01-25T08:32:16.199Z,0.3
2017-01-25T08:33:22.365Z,0.48
2017-01-25T08:34:27.537Z,0.6
2017-01-25T08:35:32.725Z,0.72
2017-01-25T08:36:38.894Z,0.53
2017-01-25T08:37:45.182Z,0.83
2017-01-25T08:38:50.487Z,1
2017-01-25T08:39:53.702Z,1.26
2017-01-25T08:40:59.898Z,1.37
2017-01-25T08:42:05.106Z,1.47
2017-01-25T08:43:09.391Z,1.69
2017-01-25T08:44:14.598Z,1.71
2017-01-25T08:45:19.839Z,1.76
2017-01-25T08:46:25.986Z,1.99
2017-01-25T08:47:31.183Z,2.2
2017-01-25T08:48:36.380Z,2.2
2017-01-25T08:49:41.582Z,2.3
2017-01-25T08:50:46.784Z,2.4
2017-01-25T08:51:52.969Z,2.38
2017-01-25T08:52:58.162Z,2.46
2017-01-25T08:54:04.459Z,2.66
2017-01-25T08:55:10.587Z,2.85
2017-01-25T08:56:16.753Z,2.76
2017-01-25T08:57:22.936Z,2.81
2017-01-25T08:58:26.166Z,2.82
2017-01-25T08:59:31.365Z,2.92
2017-01-25T09:00:37.534Z,3.03
2017-01-25T09:01:43.703Z,3.15
2017-01-25T09:02:47.939Z,3.25
2017-01-25T09:03:54.188Z,3.43
2017-01-25T09:05:00.362Z,3.49
2017-01-25T09:06:05.539Z,3.49
2017-01-25T09:07:11.711Z,3.5
2017-01-25T09:08:16.963Z,3.44
2017-01-25T09:09:21.164Z,3.54
2017-01-25T09:10:26.452Z,3.76
2017-01-25T09:11:30.695Z,4.07
2017-01-25T09:12:36.849Z,4.16
2017-01-25T09:13:41.121Z,4.24
2017-01-25T09:14:46.252Z,3.96
2017-01-25T09:15:52.435Z,4.06
2017-01-25T09:16:58.618Z,3.98
2017-01-25T09:18:04.778Z,4.07
2017-01-25T09:19:11.049Z,4
2017-01-25T09:20:17.348Z,4.14
2017-01-25T09:21:23.516Z,4.32
2017-01-25T09:22:28.746Z,4.26
2017-01-25T09:23:34.915Z,4.39
2017-01-25T09:24:41.085Z,4.42
2017-01-25T09:25:47.271Z,4.62
2017-01-25T09:26:52.525Z,4.14
2017-01-25T09:27:57.720Z,4.03
2017-01-25T09:29:02.893Z,3.97
2017-01-25T09:30:09.064Z,4.07
2017-01-25T09:31:15.231Z,3.86
2017-01-25T09:32:21.401Z,3.53
2017-01-25T09:33:26.640Z,3.43
2017-01-25T09:34:31.819Z,3.2
2017-01-25T09:35:37.023Z,3.27
2017-01-25T09:36:42.231Z,3.16
2017-01-25T09:37:48.403Z,3.02
2017-01-25T09:38:54.571Z,2.89
2017-01-25T09:39:59.785Z,2.55
2017-01-25T09:41:05.959Z,2.34
2017-01-25T09:42:10.329Z,2.17
2017-01-25T09:43:16.502Z,2.04
2017-01-25T09:44:22.672Z,1.82
2017-01-25T09:45:28.847Z,1.72
2017-01-25T09:46:35.018Z,1.6
2017-01-25T09:47:38.377Z,1.22
2017-01-25T09:48:44.610Z,1.21
2017-01-25T09:49:49.810Z,1.39
2017-01-25T09:50:55.980Z,1.71
2017-01-25T09:52:00.177Z,1.91
2017-01-25T09:53:05.383Z,1.98
2017-01-25T09:54:11.557Z,1.91
2017-01-25T09:55:17.720Z,1.83
2017-01-25T09:56:22.018Z,1.83
2017-01-25T09:57:27.219Z,1.83
2017-01-25T09:58:33.381Z,1.83
2017-01-25T09:59:38.606Z,2.1
2017-01-25T10:00:44.767Z,2.19
2017-01-25T10:01:49.944Z,2.23
2017-01-25T10:02:56.246Z,2.33
2017-01-25T10:04:00.478Z,2.38
2017-01-25T10:05:05.677Z,2.35
2017-01-25T10:06:11.848Z,2.27
2017-01-25T10:07:18.014Z,2.27
2017-01-25T10:08:24.174Z,2.16
2017-01-25T10:09:29.371Z,2.26
2017-01-25T10:10:35.560Z,2.19
2017-01-25T10:11:40.768Z,2.13
2017-01-25T10:12:45.980Z,2.12
2017-01-25T10:13:52.142Z,1.99
2017-01-25T10:14:58.313Z,1.87
2017-01-25T10:16:04.475Z,1.78
2017-01-25T10:17:10.682Z,1.78
2017-01-25T10:18:15.821Z,1.89
2017-01-25T10:19:21.020Z,1.82
2017-01-25T10:20:26.223Z,1.87
2017-01-25T10:21:30.421Z,1.76
2017-01-25T10:22:36.585Z,1.76
2017-01-25T10:23:41.784Z,1.9
2017-01-25T10:24:47.950Z,1.9
2017-01-25T10:25:54.117Z,2.02
2017-01-25T10:27:00.282Z,1.93
2017-01-25T10:28:06.461Z,1.94
2017-01-25T10:29:12.627Z,1.98
2017-01-25T10:30:18.795Z,1.93
2017-01-25T10:31:24.963Z,1.87
2017-01-25T10:32:31.158Z,1.85
2017-01-25T10:33:36.341Z,1.83
2017-01-25T10:34:40.548Z,1.89
2017-01-25T10:35:44.744Z,1.85
2017-01-25T10:36:48.978Z,1.87
2017-01-25T10:37:54.168Z,1.83
2017-01-25T10:39:00.340Z,2.08
2017-01-25T10:40:05.539Z,2.17
2017-01-25T10:41:10.736Z,2.26
2017-01-25T10:42:15.915Z,2.4
2017-01-25T10:43:21.107Z,2.46
2017-01-25T10:44:26.319Z,2.49
2017-01-25T10:46:38.641Z,2.56
2017-01-25T10:47:44.811Z,2.53
2017-01-25T10:48:49.007Z,2.58
2017-01-25T10:49:53.219Z,2.7
2017-01-25T10:50:59.395Z,2.61
2017-01-25T10:52:03.630Z,2.55
2017-01-25T10:53:09.796Z,2.63
2017-01-25T10:54:15.958Z,2.59
2017-01-25T10:55:21.164Z,2.81
2017-01-25T10:56:27.429Z,2.88
2017-01-25T10:57:33.603Z,3.02
2017-01-25T10:58:38.810Z,3.1
2017-01-25T10:59:44.024Z,3.27
2017-01-25T11:00:50.191Z,3.28
2017-01-25T11:01:56.370Z,3.34
2017-01-25T11:03:02.538Z,3.4
2017-01-25T11:04:08.717Z,3.07
2017-01-25T11:05:13.912Z,2.89
2017-01-25T11:06:17.206Z,2.88
2017-01-25T11:07:22.387Z,2.91
2017-01-25T11:08:28.567Z,3.13
2017-01-25T11:09:32.804Z,3.23
2017-01-25T11:10:38.986Z,3.42
2017-01-25T11:11:43.222Z,3.6
2017-01-25T11:12:48.427Z,3.58
2017-01-25T11:13:53.644Z,3.42
2017-01-25T11:14:59.813Z,3.27
2017-01-25T11:16:05.996Z,2.98
2017-01-25T11:17:12.193Z,2.97
2017-01-25T11:18:17.359Z,2.87
2017-01-25T11:19:23.541Z,2.88
2017-01-25T11:20:29.784Z,2.84
2017-01-25T11:21:34.979Z,2.79
2017-01-25T11:22:40.175Z,2.79
2017-01-25T11:23:46.345Z,2.84
2017-01-25T11:24:51.542Z,2.84
2017-01-25T11:25:56.750Z,2.79
2017-01-25T11:27:02.912Z,2.74
2017-01-25T11:28:09.089Z,2.69
2017-01-25T11:29:15.261Z,2.49
2017-01-25T11:30:20.469Z,2.52
2017-01-25T11:31:25.676Z,2.51
2017-01-25T11:32:30.888Z,2.55
2017-01-25T11:33:37.085Z,2.52
2017-01-25T11:34:42.253Z,2.52
2017-01-25T11:35:47.451Z,2.55
2017-01-25T11:36:53.624Z,2.63
2017-01-25T11:37:58.831Z,2.4
2017-01-25T11:39:04.040Z,2.27
2017-01-25T11:40:10.304Z,2.22
2017-01-25T11:41:14.498Z,2.3
2017-01-25T11:42:19.700Z,2.41
2017-01-25T11:43:24.933Z,2.49
2017-01-25T11:44:29.197Z,2.4
2017-01-25T11:45:34.388Z,2.53
2017-01-25T11:46:40.566Z,2.63
2017-01-25T11:47:46.732Z,2.77
2017-01-25T11:48:52.907Z,2.89
2017-01-25T11:49:58.107Z,2.95
2017-01-25T11:51:04.274Z,2.81
2017-01-25T11:52:09.473Z,2.71
2017-01-25T11:53:15.652Z,2.79
2017-01-25T11:54:21.825Z,2.71
2017-01-25T11:55:25.059Z,2.61
2017-01-25T11:56:30.243Z,2.56
2017-01-25T11:57:35.466Z,2.73
2017-01-25T11:58:40.668Z,2.71
2017-01-25T11:59:46.830Z,2.76
2017-01-25T12:00:52.991Z,2.85
2017-01-25T12:01:59.152Z,2.73
2017-01-25T12:03:04.354Z,2.73
2017-01-25T12:04:09.563Z,2.88
2017-01-25T12:05:13.770Z,2.85
2017-01-25T12:06:18.973Z,2.97
2017-01-25T12:07:24.183Z,2.95
2017-01-25T12:08:30.344Z,2.91
2017-01-25T12:09:34.577Z,2.77
2017-01-25T12:10:39.828Z,2.82
2017-01-25T12:11:44.032Z,2.84
2017-01-25T12:12:47.301Z,2.87
2017-01-25T12:13:53.463Z,2.76
2017-01-25T12:14:57.673Z,2.73
2017-01-25T12:16:03.876Z,2.73
2017-01-25T12:17:10.018Z,2.69
2017-01-25T12:18:16.192Z,2.61
2017-01-25T12:19:21.359Z,2.55
2017-01-25T12:20:25.729Z,2.41
2017-01-25T12:21:31.890Z,2.4
2017-01-25T12:22:38.053Z,2.44
2017-01-25T12:23:43.221Z,2.19
2017-01-25T12:24:48.406Z,2.13
2017-01-25T12:25:54.571Z,2.13
2017-01-25T12:26:58.770Z,2.17
2017-01-25T12:28:02.084Z,2.4
2017-01-25T12:29:08.231Z,2.46
2017-01-25T12:30:14.397Z,2.41
2017-01-25T12:31:19.596Z,2.46
2017-01-25T12:32:24.794Z,2.44
2017-01-25T12:33:29.031Z,2.4
2017-01-25T12:34:35.256Z,2.52
2017-01-25T12:35:39.463Z,2.48
2017-01-25T12:36:45.627Z,2.46
2017-01-25T12:37:50.956Z,2.49
2017-01-25T12:38:56.128Z,2.64
2017-01-25T12:40:02.302Z,2.45
2017-01-25T12:41:06.533Z,2.53
2017-01-25T12:42:11.771Z,2.44
2017-01-25T12:43:16.940Z,2.45
2017-01-25T12:44:22.146Z,2.44
2017-01-25T12:45:27.439Z,2.49
2017-01-25T12:46:32.661Z,2.53
2017-01-25T12:47:37.847Z,2.51
2017-01-25T12:48:43.047Z,2.53
2017-01-25T12:49:49.237Z,2.35
2017-01-25T12:50:54.446Z,2.15
2017-01-25T12:51:59.645Z,2.16
2017-01-25T12:53:05.804Z,2.02
2017-01-25T12:54:11.010Z,1.87
2017-01-25T12:55:16.212Z,1.87
2017-01-25T12:56:21.376Z,1.85
2017-01-25T12:57:26.625Z,1.73
2017-01-25T12:58:32.785Z,1.72
2017-01-25T12:59:37.013Z,1.64
2017-01-25T13:00:43.187Z,1.68
2017-01-25T13:01:49.356Z,1.68
2017-01-25T13:02:54.614Z,1.71
2017-01-25T13:03:59.811Z,1.71
2017-01-25T13:05:05.015Z,1.6
2017-01-25T13:06:10.215Z,1.57
2017-01-25T13:07:16.387Z,1.51
2017-01-25T13:08:22.562Z,1.44
2017-01-25T13:09:27.880Z,1.46
2017-01-25T13:10:34.046Z,1.42
2017-01-25T13:11:38.292Z,1.4
2017-01-25T13:12:44.471Z,1.5
2017-01-25T13:13:49.679Z,1.55
2017-01-25T13:14:54.886Z,1.65
2017-01-25T13:16:01.063Z,1.78
2017-01-25T13:17:07.219Z,1.62
2017-01-25T13:18:13.392Z,1.78
2017-01-25T13:19:19.559Z,1.79
2017-01-25T13:20:25.722Z,1.72
2017-01-25T13:21:30.919Z,1.68
2017-01-25T13:22:36.116Z,1.76
2017-01-25T13:23:41.328Z,1.79
2017-01-25T13:24:47.485Z,1.83
2017-01-25T13:25:52.657Z,1.69
2017-01-25T13:26:56.896Z,1.69
2017-01-25T13:28:03.119Z,1.68
2017-01-25T13:29:07.376Z,1.62
2017-01-25T13:30:12.530Z,1.69
2017-01-25T13:31:17.709Z,1.69
2017-01-25T13:32:21.904Z,1.6
2017-01-25T13:33:26.107Z,1.65
2017-01-25T13:34:32.276Z,1.68
2017-01-25T13:35:37.472Z,1.57
2017-01-25T13:36:42.667Z,1.5
2017-01-25T13:37:47.877Z,1.62
2017-01-25T13:38:53.090Z,1.62
2017-01-25T13:39:59.247Z,1.57
2017-01-25T13:41:05.479Z,1.65
2017-01-25T13:42:11.653Z,1.55
2017-01-25T13:43:16.862Z,1.62
2017-01-25T13:44:23.037Z,1.73
2017-01-25T13:45:27.272Z,1.69
2017-01-25T13:46:33.443Z,1.72
2017-01-25T13:47:39.715Z,1.73
2017-01-25T13:48:44.973Z,1.69
2017-01-25T13:49:50.129Z,1.72
2017-01-25T13:50:55.328Z,1.73
2017-01-25T13:51:59.529Z,1.65
2017-01-25T13:53:04.725Z,1.68
2017-01-25T13:54:09.920Z,1.73
2017-01-25T13:55:16.084Z,1.69
2017-01-25T13:56:20.364Z,1.6
2017-01-25T13:57:26.536Z,1.64
2017-01-25T13:58:30.765Z,1.52
2017-01-25T13:59:35.012Z,1.4
2017-01-25T14:00:40.182Z,1.43
2017-01-25T14:01:46.341Z,1.32
2017-01-25T14:02:50.579Z,1.36
2017-01-25T14:03:56.741Z,1.37
2017-01-25T14:05:01.936Z,1.39
2017-01-25T14:06:08.101Z,1.36
2017-01-25T14:07:12.334Z,1.36
2017-01-25T14:09:24.667Z,1.32
2017-01-25T14:10:29.948Z,1.25
2017-01-25T14:11:36.107Z,1.21
2017-01-25T14:12:42.287Z,1.22
2017-01-25T14:13:48.444Z,1.28
2017-01-25T14:14:54.709Z,1.21
2017-01-25T14:15:59.859Z,1.28
2017-01-25T14:17:05.055Z,1.21
2017-01-25T14:18:10.259Z,1.16
2017-01-25T14:19:15.465Z,1.08